Maputo, Moçambique

03:23 PM CAT em 22 de Julho de 2014 (GMT +0200)
Maputo (FQMA) Elev 144 ft | 25.92 °S, 32.57 °E | Change Station

Current weather conditions updated 23 minutes ago

Clear
Céu Limpo
79 °F
Aparente 79 °F
N
13
Vento Variável Vento de Este

Hoje prevê-se estar Mais Quente do que ontem.

Hoje
Máxima -- | Mínima -- °F
--% Possibilidade de Precip.
Ontem
Máxima -- | Mínima -- °F
Precip. -- pol
6:33 AM 5:18 PM
Quarto minguante, 17% visible
Pressão 30.18 pol
Visibilidade -9999.0 milhas
Nuvens
Ponto de Orvalho 54 °F
Humidade 42%
Chuva 0.00 pol
Altura de Neve Não disponível
UV Não disponível
Pólen Não disponível
Qualidade do Ar Não disponível
Flu Activity Não disponível
METAR FQMA 221300Z 08011KT CAVOK 26/12 Q1022 NOSIG

More Conditions Fewer Conditions

Pressão 30.18 pol
Visibilidade -9999.0 milhas
Nuvens
Ponto de Orvalho 54 °F
Humidade 42%
Chuva 0.00 pol
Altura de Neve Não disponível
UV Não disponível
Pólen Não disponível
Qualidade do Ar Não disponível
Flu Activity Não disponível
METAR FQMA 221300Z 08011KT CAVOK 26/12 Q1022 NOSIG

More Conditions Fewer Conditions

10-Day Weather Forecast

LIGHTNING

Thunderstorms are forecast for your area. Cloud conditions might be right for producing strikes in the next few days, though lightning itself cannot be forecasted.

Lightning is a visible electrical discharge produced by a thunderstorm, based on the build up of oppositely charged particles within a cloud and from cloud to ground.

Know how to stay safe in a lightning storm.

Check out these Lightning WunderPhotos!

Almanac

Astronomia

Jul. 22, 2014 Nascer Pôr
Hora atual 06:33 CAT 17:18 CAT
Crepúsculo civil 06:08 CAT 17:43 CAT
Crepúsculo náutico 05:40 CAT 18:11 CAT
Crepúsculo astronómico 05:13 CAT 18:39 CAT
Lua 02:38 CAT 13:46 CAT
Comprimento da luz visível 11h 34m
Duração do Dia
10h 45m
Tomorrow will be 0m 53s longer.
Quarto minguante, 17% of the Moon is Illuminated
Hoje
Quarto minguante
Jul 26
Nova
Ago 3
Quarto crescente
Ago 10
Lua cheia
Ago 17
Quarto minguante

Extremos de ontem

Altitude na localidade Altura mais baixa na localidade

Community

WunderPhotos

Upload Photos

1,736,226 fotografias inseridas!

Nearby

Actividade Sísmisca

Cidade Distância Mag. Hora & Data
Não há notícias de atividade sísmica recente perto de si.
Mínima magnitude apresentada é 2.5.

Temperaturas das Águas Costeiras

Local Temperatura
Não há estações a reportar dados

Estações Meteorológicas Próximas

Não há estações meteorológicas nesta área.